createdAt,value
2018-12-08T00:00:16.692Z,75.7
2018-12-08T00:01:16.734Z,75.8
2018-12-08T00:02:16.998Z,75.8
2018-12-08T00:03:16.273Z,76.1
2018-12-08T00:04:16.559Z,76.3
2018-12-08T00:05:16.818Z,75.9
2018-12-08T00:06:17.083Z,76.2
2018-12-08T00:07:16.350Z,76.2
2018-12-08T00:08:16.625Z,76.8
2018-12-08T00:09:17.018Z,76.3
2018-12-08T00:10:16.288Z,76.3
2018-12-08T00:11:16.349Z,76.0
2018-12-08T00:12:16.611Z,76.2
2018-12-08T00:13:16.874Z,75.8
2018-12-08T00:14:17.143Z,76.0
2018-12-08T00:15:16.412Z,76.3
2018-12-08T00:16:16.678Z,76.4
2018-12-08T00:17:16.940Z,76.3
2018-12-08T00:18:17.196Z,76.7
2018-12-08T00:19:16.457Z,76.7
2018-12-08T00:20:16.728Z,77.1
2018-12-08T00:21:16.832Z,77.0
2018-12-08T00:22:17.097Z,76.7
2018-12-08T00:23:16.363Z,76.8
2018-12-08T00:24:16.635Z,76.9
2018-12-08T00:25:16.892Z,76.9
2018-12-08T00:26:17.156Z,77.2
2018-12-08T00:27:16.420Z,77.1
2018-12-08T00:28:16.684Z,77.1
2018-12-08T00:29:16.951Z,77.4
2018-12-08T00:30:17.221Z,76.9
2018-12-08T00:31:16.275Z,77.0
2018-12-08T00:32:16.553Z,76.8
2018-12-08T00:33:16.812Z,77.1
2018-12-08T00:34:17.095Z,77.6
2018-12-08T00:35:16.368Z,77.0
2018-12-08T00:36:16.630Z,77.0
2018-12-08T00:37:16.898Z,76.8
2018-12-08T00:38:17.165Z,76.6
2018-12-08T00:39:16.441Z,76.8
2018-12-08T00:40:16.709Z,76.2
2018-12-08T00:41:16.756Z,76.0
2018-12-08T00:42:17.022Z,75.8
2018-12-08T00:43:16.279Z,75.6
2018-12-08T00:44:16.558Z,76.7
2018-12-08T00:45:16.838Z,76.2
2018-12-08T00:46:17.107Z,76.4
2018-12-08T00:47:16.380Z,76.2
2018-12-08T00:48:16.647Z,76.3
2018-12-08T00:49:16.906Z,76.7
2018-12-08T00:50:17.188Z,76.2
2018-12-08T00:51:17.222Z,76.2
2018-12-08T00:52:16.482Z,75.8
2018-12-08T00:53:16.749Z,76.2
2018-12-08T00:54:17.026Z,76.0
2018-12-08T00:55:16.290Z,76.1
2018-12-08T00:56:16.555Z,76.8
2018-12-08T00:57:16.820Z,76.0
2018-12-08T00:58:17.086Z,76.2
2018-12-08T00:59:16.361Z,76.6
2018-12-08T01:00:16.633Z,76.4
2018-12-08T01:01:16.695Z,77.1
2018-12-08T01:02:16.975Z,76.7
2018-12-08T01:03:17.246Z,76.7
2018-12-08T01:04:16.524Z,77.7
2018-12-08T01:05:16.776Z,77.2
2018-12-08T01:06:17.037Z,77.3
2018-12-08T01:07:16.297Z,77.9
2018-12-08T01:08:16.566Z,78.4
2018-12-08T01:09:16.827Z,78.0
2018-12-08T01:10:17.102Z,78.0
2018-12-08T01:11:17.179Z,77.9
2018-12-08T01:12:16.434Z,77.7
2018-12-08T01:13:16.705Z,77.6
2018-12-08T01:14:16.976Z,77.8
2018-12-08T01:15:17.235Z,78.0
2018-12-08T01:16:16.497Z,78.3
2018-12-08T01:17:16.763Z,78.5
2018-12-08T01:18:17.044Z,78.7
2018-12-08T01:19:16.307Z,78.7
2018-12-08T01:20:16.583Z,78.8
2018-12-08T01:21:16.642Z,79.4
2018-12-08T01:22:16.901Z,79.7
2018-12-08T01:23:17.166Z,79.8
2018-12-08T01:24:16.433Z,80.4
2018-12-08T01:25:16.700Z,79.6
2018-12-08T01:26:16.956Z,79.2
2018-12-08T01:27:17.218Z,79.6
2018-12-08T01:28:16.486Z,79.2
2018-12-08T01:29:16.756Z,80.2
2018-12-08T01:30:17.032Z,79.8
2018-12-08T01:31:17.064Z,80.0
2018-12-08T01:32:16.325Z,80.0
2018-12-08T01:33:16.589Z,80.3
2018-12-08T01:34:16.848Z,80.4
2018-12-08T01:35:17.135Z,79.9
2018-12-08T01:36:16.404Z,80.4
2018-12-08T01:37:16.663Z,80.2
2018-12-08T01:38:16.923Z,80.1
2018-12-08T01:39:17.194Z,79.6
2018-12-08T01:40:16.469Z,79.7
2018-12-08T01:41:16.515Z,79.7
2018-12-08T01:42:16.781Z,79.5
2018-12-08T01:43:17.041Z,79.3
2018-12-08T01:44:16.308Z,79.6
2018-12-08T01:45:16.574Z,80.1
2018-12-08T01:46:16.842Z,80.0
2018-12-08T01:47:17.107Z,79.8
2018-12-08T01:48:16.373Z,80.0
2018-12-08T01:49:16.636Z,79.8
2018-12-08T01:50:16.906Z,80.3
2018-12-08T01:51:16.953Z,80.5
2018-12-08T01:52:17.226Z,80.4
2018-12-08T01:53:16.494Z,80.9
2018-12-08T01:54:16.764Z,80.8
2018-12-08T01:55:17.025Z,81.2
2018-12-08T01:56:16.295Z,81.2
2018-12-08T01:57:16.564Z,81.3
2018-12-08T01:58:16.827Z,82.0
2018-12-08T01:59:17.544Z,81.2
2018-12-08T02:00:16.921Z,81.1
2018-12-08T02:01:16.881Z,81.6
2018-12-08T02:02:17.174Z,81.5
2018-12-08T02:03:16.445Z,81.6
2018-12-08T02:04:16.702Z,82.0
2018-12-08T02:05:17.240Z,82.3
2018-12-08T02:06:16.498Z,82.5
2018-12-08T02:07:16.756Z,82.2
2018-12-08T02:08:17.016Z,82.4
2018-12-08T02:09:16.273Z,82.6
2018-12-08T02:10:16.550Z,83.0
2018-12-08T02:11:25.278Z,82.9
2018-12-08T02:12:16.587Z,82.6
2018-12-08T02:13:16.859Z,82.9
2018-12-08T02:14:17.127Z,83.0
2018-12-08T02:15:16.395Z,82.8
2018-12-08T02:16:16.663Z,82.8
2018-12-08T02:17:16.921Z,83.2
2018-12-08T02:18:17.178Z,83.3
2018-12-08T02:19:16.445Z,82.8
2018-12-08T02:20:16.721Z,83.2
2018-12-08T02:21:16.748Z,82.7
2018-12-08T02:22:17.014Z,83.0
2018-12-08T02:23:16.280Z,83.0
2018-12-08T02:24:16.562Z,83.5
2018-12-08T02:25:16.828Z,83.7
2018-12-08T02:26:17.096Z,83.0
2018-12-08T02:27:16.366Z,83.2
2018-12-08T02:28:16.625Z,83.3
2018-12-08T02:29:16.881Z,82.8
2018-12-08T02:30:17.150Z,82.9
2018-12-08T02:31:17.486Z,83.1
2018-12-08T02:32:16.764Z,83.2
2018-12-08T02:33:17.028Z,83.2
2018-12-08T02:34:16.306Z,83.0
2018-12-08T02:35:16.578Z,83.1
2018-12-08T02:36:16.847Z,82.7
2018-12-08T02:37:17.122Z,83.2
2018-12-08T02:38:16.391Z,83.2
2018-12-08T02:39:16.668Z,83.8
2018-12-08T02:40:16.952Z,83.1
2018-12-08T02:41:16.983Z,83.2
2018-12-08T02:42:17.243Z,82.7
2018-12-08T02:43:16.512Z,82.5
2018-12-08T02:44:16.778Z,82.3
2018-12-08T02:45:17.048Z,82.8
2018-12-08T02:46:16.712Z,82.9
2018-12-08T02:47:16.979Z,83.2
2018-12-08T02:48:17.253Z,83.2
2018-12-08T02:49:16.539Z,83.3
2018-12-08T02:50:16.815Z,83.2
2018-12-08T02:51:16.887Z,83.2
2018-12-08T02:52:17.154Z,83.6
2018-12-08T02:53:16.425Z,83.4
2018-12-08T02:54:16.696Z,83.8
2018-12-08T02:55:16.979Z,83.8
2018-12-08T02:56:17.251Z,83.6
2018-12-08T02:57:16.526Z,83.3
2018-12-08T02:58:16.790Z,83.7
2018-12-08T02:59:17.061Z,83.9
2018-12-08T03:00:16.332Z,83.8
2018-12-08T03:01:16.396Z,83.8
2018-12-08T03:02:16.662Z,84.0
2018-12-08T03:03:17.020Z,84.0
2018-12-08T03:04:16.281Z,84.0
2018-12-08T03:05:16.549Z,83.8
2018-12-08T03:06:16.814Z,83.8
2018-12-08T03:07:17.078Z,83.8
2018-12-08T03:08:16.336Z,83.8
2018-12-08T03:09:16.611Z,83.9
2018-12-08T03:10:16.886Z,84.1
2018-12-08T03:11:16.934Z,84.4
2018-12-08T03:12:17.192Z,84.3
2018-12-08T03:13:16.455Z,84.6
2018-12-08T03:14:16.731Z,84.6
2018-12-08T03:15:16.996Z,84.4
2018-12-08T03:16:16.272Z,84.7
2018-12-08T03:17:16.535Z,84.8
2018-12-08T03:18:16.794Z,85.0
2018-12-08T03:19:17.070Z,84.5
2018-12-08T03:20:16.342Z,84.8
2018-12-08T03:21:16.377Z,84.8
2018-12-08T03:22:16.652Z,84.8
2018-12-08T03:23:16.924Z,84.9
2018-12-08T03:24:17.201Z,85.0
2018-12-08T03:25:16.469Z,84.8
2018-12-08T03:26:16.739Z,85.0
2018-12-08T03:27:17.002Z,85.1
2018-12-08T03:28:16.296Z,85.2
2018-12-08T03:29:16.581Z,84.8
2018-12-08T03:30:16.856Z,84.8
2018-12-08T03:31:16.909Z,84.6
2018-12-08T03:32:17.182Z,84.8
2018-12-08T03:33:16.450Z,84.7
2018-12-08T03:34:16.709Z,84.8
2018-12-08T03:35:16.980Z,84.6
2018-12-08T03:36:17.237Z,84.8
2018-12-08T03:37:16.507Z,84.7
2018-12-08T03:38:16.779Z,84.2
2018-12-08T03:39:17.043Z,84.1
2018-12-08T03:40:16.340Z,84.0
2018-12-08T03:41:16.365Z,83.8
2018-12-08T03:42:16.628Z,83.9
2018-12-08T03:43:16.884Z,83.9
2018-12-08T03:44:17.151Z,83.9
2018-12-08T03:45:16.423Z,83.4
2018-12-08T03:46:16.690Z,83.6
2018-12-08T03:47:16.965Z,83.4
2018-12-08T03:48:17.224Z,83.2
2018-12-08T03:49:16.502Z,82.9
2018-12-08T03:50:16.772Z,82.5
2018-12-08T03:51:16.843Z,82.7
2018-12-08T03:52:17.105Z,82.5
2018-12-08T03:53:16.373Z,82.4
2018-12-08T03:54:16.640Z,82.2
2018-12-08T03:55:16.910Z,82.1
2018-12-08T03:56:17.180Z,82.0
2018-12-08T03:57:16.455Z,82.2
2018-12-08T03:58:16.724Z,82.0
2018-12-08T03:59:16.987Z,81.6
2018-12-08T04:00:17.262Z,81.7
2018-12-08T04:01:16.318Z,81.8
2018-12-08T04:02:16.585Z,81.7
2018-12-08T04:03:16.849Z,82.1
2018-12-08T04:04:17.137Z,82.0
2018-12-08T04:05:16.428Z,82.1
2018-12-08T04:06:16.737Z,82.4
2018-12-08T04:07:17.025Z,82.2
2018-12-08T04:08:16.302Z,82.2
2018-12-08T04:09:16.563Z,81.8
2018-12-08T04:10:16.838Z,81.2
2018-12-08T04:11:16.894Z,81.7
2018-12-08T04:12:17.179Z,81.4
2018-12-08T04:13:16.454Z,81.4
2018-12-08T04:14:16.731Z,81.7
2018-12-08T04:15:17.019Z,81.4
2018-12-08T04:16:16.282Z,81.6
2018-12-08T04:17:16.563Z,81.3
2018-12-08T04:18:16.820Z,81.2
2018-12-08T04:19:17.089Z,81.5
2018-12-08T04:20:16.364Z,81.8
2018-12-08T04:21:16.414Z,81.2
2018-12-08T04:22:16.683Z,80.7
2018-12-08T04:23:16.946Z,80.9
2018-12-08T04:24:17.215Z,81.8
2018-12-08T04:25:16.501Z,83.3
2018-12-08T04:26:16.777Z,83.8
2018-12-08T04:27:17.045Z,84.0
2018-12-08T04:28:16.310Z,84.4
2018-12-08T04:29:16.590Z,85.2
2018-12-08T04:30:16.871Z,85.3
2018-12-08T04:31:16.900Z,85.3
2018-12-08T04:32:17.163Z,85.3
2018-12-08T04:33:16.431Z,85.6
2018-12-08T04:34:16.703Z,85.4
2018-12-08T04:35:16.961Z,85.2
2018-12-08T04:36:17.233Z,85.0
2018-12-08T04:37:16.502Z,84.8
2018-12-08T04:38:16.769Z,85.4
2018-12-08T04:39:17.030Z,85.1
2018-12-08T04:40:16.311Z,84.9
2018-12-08T04:41:16.363Z,84.3
2018-12-08T04:42:16.917Z,84.5
2018-12-08T04:43:17.191Z,84.2
2018-12-08T04:44:16.448Z,83.8
2018-12-08T04:45:16.715Z,84.0
2018-12-08T04:46:16.987Z,83.9
2018-12-08T04:47:17.254Z,84.2
2018-12-08T04:48:16.517Z,83.8
2018-12-08T04:49:16.783Z,83.2
2018-12-08T04:50:17.071Z,82.9
2018-12-08T04:51:17.111Z,83.2
2018-12-08T04:52:16.374Z,83.4
2018-12-08T04:53:16.644Z,83.6
2018-12-08T04:54:16.910Z,83.3
2018-12-08T04:55:17.173Z,83.0
2018-12-08T04:56:16.787Z,82.9
2018-12-08T04:57:17.046Z,83.0
2018-12-08T04:58:16.317Z,83.4
2018-12-08T04:59:16.583Z,83.4
2018-12-08T05:00:16.841Z,83.8
2018-12-08T05:01:16.906Z,83.9
2018-12-08T05:02:17.176Z,83.8
2018-12-08T05:03:16.445Z,84.2
2018-12-08T05:04:16.710Z,84.0
2018-12-08T05:05:16.995Z,83.9
2018-12-08T05:06:16.259Z,83.8
2018-12-08T05:07:16.528Z,83.7
2018-12-08T05:08:16.806Z,83.9
2018-12-08T05:09:17.076Z,84.3
2018-12-08T05:10:16.357Z,84.2
2018-12-08T05:11:16.392Z,84.4
2018-12-08T05:12:16.659Z,84.0
2018-12-08T05:13:16.920Z,84.4
2018-12-08T05:14:17.186Z,84.3
2018-12-08T05:15:16.441Z,84.5
2018-12-08T05:16:16.704Z,84.4
2018-12-08T05:17:16.961Z,84.5
2018-12-08T05:18:17.230Z,85.0
2018-12-08T05:19:16.498Z,84.8
2018-12-08T05:20:16.781Z,84.8
2018-12-08T05:21:16.830Z,84.7
2018-12-08T05:22:17.096Z,84.9
2018-12-08T05:23:16.362Z,85.2
2018-12-08T05:24:18.278Z,85.0
2018-12-08T05:25:16.549Z,84.9
2018-12-08T05:26:16.842Z,84.9
2018-12-08T05:27:17.105Z,84.8
2018-12-08T05:28:16.365Z,84.8
2018-12-08T05:29:16.625Z,85.0
2018-12-08T05:30:16.899Z,85.1
2018-12-08T05:31:16.959Z,84.9
2018-12-08T05:32:17.215Z,84.8
2018-12-08T05:33:16.478Z,84.8
2018-12-08T05:34:16.741Z,84.7
2018-12-08T05:35:17.009Z,85.0
2018-12-08T05:36:16.277Z,85.2
2018-12-08T05:37:16.552Z,85.3
2018-12-08T05:38:16.819Z,85.1
2018-12-08T05:39:17.087Z,85.4
2018-12-08T05:40:16.359Z,85.5
2018-12-08T05:41:16.408Z,85.3
2018-12-08T05:42:16.675Z,85.2
2018-12-08T05:43:16.935Z,85.4
2018-12-08T05:44:17.201Z,85.2
2018-12-08T05:45:16.481Z,85.2
2018-12-08T05:46:16.741Z,85.0
2018-12-08T05:47:16.999Z,85.3
2018-12-08T05:48:16.258Z,85.3
2018-12-08T05:49:16.520Z,85.2
2018-12-08T05:50:16.805Z,85.2
2018-12-08T05:51:16.840Z,84.8
2018-12-08T05:52:17.113Z,84.9
2018-12-08T05:53:16.382Z,84.8
2018-12-08T05:54:16.651Z,85.3
2018-12-08T05:55:16.916Z,85.2
2018-12-08T05:56:17.508Z,85.4
2018-12-08T05:57:16.779Z,85.5
2018-12-08T05:58:17.046Z,85.6
2018-12-08T05:59:16.312Z,85.7
2018-12-08T06:00:16.576Z,85.4
2018-12-08T06:01:16.614Z,85.3
2018-12-08T06:02:16.868Z,85.4
2018-12-08T06:03:17.125Z,85.8
2018-12-08T06:04:16.404Z,86.8
2018-12-08T06:05:16.658Z,86.9
2018-12-08T06:06:16.927Z,87.5
2018-12-08T06:07:17.185Z,87.8
2018-12-08T06:08:16.460Z,88.1
2018-12-08T06:09:16.722Z,88.2
2018-12-08T06:10:16.991Z,88.1
2018-12-08T06:11:17.236Z,88.3
2018-12-08T06:12:16.497Z,88.8
2018-12-08T06:13:16.757Z,88.3
2018-12-08T06:14:17.030Z,88.2
2018-12-08T06:15:16.313Z,88.0
2018-12-08T06:16:16.572Z,87.5
2018-12-08T06:17:16.842Z,87.5
2018-12-08T06:18:17.093Z,88.1
2018-12-08T06:19:16.360Z,88.0
2018-12-08T06:20:16.635Z,87.9
2018-12-08T06:21:16.669Z,88.1
2018-12-08T06:22:17.238Z,87.9
2018-12-08T06:23:16.500Z,88.0
2018-12-08T06:24:16.750Z,88.0
2018-12-08T06:25:17.027Z,88.0
2018-12-08T06:26:16.293Z,87.7
2018-12-08T06:27:16.558Z,88.2
2018-12-08T06:28:16.849Z,87.8
2018-12-08T06:29:17.108Z,87.7
2018-12-08T06:30:16.388Z,87.5
2018-12-08T06:31:16.428Z,87.3
2018-12-08T06:32:16.696Z,87.5
2018-12-08T06:33:16.958Z,87.8
2018-12-08T06:34:17.228Z,87.2
2018-12-08T06:35:16.508Z,87.8
2018-12-08T06:36:16.791Z,87.4
2018-12-08T06:37:17.055Z,87.3
2018-12-08T06:38:16.326Z,87.7
2018-12-08T06:39:16.598Z,87.6
2018-12-08T06:40:16.866Z,87.5
2018-12-08T06:41:16.936Z,87.4
2018-12-08T06:42:17.204Z,87.4
2018-12-08T06:43:16.464Z,87.3
2018-12-08T06:44:16.737Z,87.1
2018-12-08T06:45:16.997Z,87.0
2018-12-08T06:46:16.257Z,86.5
2018-12-08T06:47:16.526Z,86.0
2018-12-08T06:48:16.888Z,86.0
2018-12-08T06:49:17.160Z,85.7
2018-12-08T06:50:16.454Z,86.2
2018-12-08T06:51:16.461Z,85.9
2018-12-08T06:52:16.723Z,85.8
2018-12-08T06:53:16.993Z,86.5
2018-12-08T06:54:16.259Z,86.8
2018-12-08T06:55:16.539Z,86.3
2018-12-08T06:56:16.806Z,86.3
2018-12-08T06:57:17.071Z,86.3
2018-12-08T06:58:16.342Z,86.7
2018-12-08T06:59:16.603Z,86.7
2018-12-08T07:00:16.881Z,86.5
2018-12-08T07:01:16.935Z,86.5
2018-12-08T07:02:17.194Z,86.3
2018-12-08T07:03:16.479Z,86.4
2018-12-08T07:04:16.747Z,86.2
2018-12-08T07:05:17.010Z,86.1
2018-12-08T07:06:16.287Z,86.4
2018-12-08T07:07:16.555Z,86.5
2018-12-08T07:08:16.821Z,86.5
2018-12-08T07:09:17.087Z,87.0
2018-12-08T07:10:16.355Z,86.9
2018-12-08T07:11:16.412Z,87.2
2018-12-08T07:12:16.670Z,87.7
2018-12-08T07:13:16.933Z,87.8
2018-12-08T07:14:17.201Z,87.4
2018-12-08T07:15:16.467Z,87.2
2018-12-08T07:16:16.735Z,87.0
2018-12-08T07:17:16.999Z,87.0
2018-12-08T07:18:16.263Z,86.9
2018-12-08T07:19:16.536Z,87.1
2018-12-08T07:20:16.893Z,86.8
2018-12-08T07:21:16.949Z,87.1
2018-12-08T07:22:17.218Z,86.8
2018-12-08T07:23:16.483Z,87.2
2018-12-08T07:24:16.760Z,87.2
2018-12-08T07:25:17.025Z,86.7
2018-12-08T07:26:16.279Z,86.4
2018-12-08T07:27:16.539Z,86.6
2018-12-08T07:28:16.806Z,86.5
2018-12-08T07:29:17.072Z,86.4
2018-12-08T07:30:16.333Z,86.6
2018-12-08T07:31:16.388Z,86.3
2018-12-08T07:32:16.659Z,86.4
2018-12-08T07:33:16.930Z,86.5
2018-12-08T07:34:17.190Z,86.7
2018-12-08T07:35:16.454Z,86.5
2018-12-08T07:36:16.721Z,86.7
2018-12-08T07:37:16.986Z,86.5
2018-12-08T07:38:17.255Z,86.4
2018-12-08T07:39:16.517Z,86.4
2018-12-08T07:40:16.783Z,86.5
2018-12-08T07:41:16.842Z,86.3
2018-12-08T07:42:17.107Z,86.3
2018-12-08T07:43:16.374Z,86.7
2018-12-08T07:44:16.729Z,86.3
2018-12-08T07:45:16.994Z,86.3
2018-12-08T07:46:16.259Z,86.3
2018-12-08T07:47:16.550Z,85.9
2018-12-08T07:48:16.831Z,85.8
2018-12-08T07:49:17.108Z,86.0
2018-12-08T07:50:16.376Z,85.5
2018-12-08T07:51:16.442Z,85.8
2018-12-08T07:52:16.698Z,86.2
2018-12-08T07:53:16.967Z,86.2
2018-12-08T07:54:17.227Z,85.9
2018-12-08T07:55:16.502Z,86.1
2018-12-08T07:56:16.771Z,86.1
2018-12-08T07:57:17.032Z,86.2
2018-12-08T07:58:16.294Z,85.9
2018-12-08T07:59:16.563Z,85.9
2018-12-08T08:00:16.845Z,85.7
2018-12-08T08:01:16.903Z,85.7
2018-12-08T08:02:17.491Z,85.7
2018-12-08T08:03:16.744Z,85.9
2018-12-08T08:04:17.009Z,85.7
2018-12-08T08:05:16.279Z,85.3
2018-12-08T08:06:16.558Z,85.2
2018-12-08T08:07:16.822Z,85.3
2018-12-08T08:08:17.104Z,85.2
2018-12-08T08:09:16.362Z,85.4
2018-12-08T08:10:16.635Z,85.7
2018-12-08T08:11:16.662Z,85.5
2018-12-08T08:12:16.928Z,85.2
2018-12-08T08:13:17.190Z,85.0
2018-12-08T08:14:16.457Z,84.6
2018-12-08T08:15:16.725Z,84.5
2018-12-08T08:16:17.002Z,84.5
2018-12-08T08:17:16.273Z,84.8
2018-12-08T08:18:16.539Z,84.2
2018-12-08T08:19:16.806Z,84.0
2018-12-08T08:20:17.078Z,84.2
2018-12-08T08:21:17.139Z,84.2
2018-12-08T08:22:16.407Z,84.3
2018-12-08T08:23:16.676Z,83.9
2018-12-08T08:24:16.936Z,84.2
2018-12-08T08:25:17.214Z,83.8
2018-12-08T08:26:16.483Z,83.7
2018-12-08T08:27:16.748Z,83.2
2018-12-08T08:28:17.113Z,83.0
2018-12-08T08:29:16.376Z,83.2
2018-12-08T08:30:16.648Z,83.2
2018-12-08T08:31:16.694Z,83.3
2018-12-08T08:32:16.957Z,83.6
2018-12-08T08:33:17.241Z,82.8
2018-12-08T08:34:16.504Z,82.7
2018-12-08T08:35:16.769Z,82.5
2018-12-08T08:36:17.039Z,82.7
2018-12-08T08:37:16.321Z,82.7
2018-12-08T08:38:16.583Z,82.2
2018-12-08T08:39:16.850Z,82.3
2018-12-08T08:40:17.123Z,82.2
2018-12-08T08:41:17.174Z,82.2
2018-12-08T08:42:16.441Z,82.3
2018-12-08T08:43:16.705Z,82.0
2018-12-08T08:44:16.971Z,81.7
2018-12-08T08:45:17.248Z,81.5
2018-12-08T08:46:16.518Z,81.3
2018-12-08T08:47:16.779Z,81.1
2018-12-08T08:48:17.459Z,81.0
2018-12-08T08:49:16.734Z,81.3
2018-12-08T08:50:17.017Z,80.5
2018-12-08T08:51:17.065Z,80.6
2018-12-08T08:52:16.331Z,80.6
2018-12-08T08:53:16.598Z,81.0
2018-12-08T08:54:16.874Z,80.7
2018-12-08T08:55:17.140Z,80.5
2018-12-08T08:56:16.411Z,80.7
2018-12-08T08:57:16.718Z,80.3
2018-12-08T08:58:16.992Z,79.6
2018-12-08T08:59:17.489Z,79.7
2018-12-08T09:00:16.766Z,79.8
2018-12-08T09:01:16.825Z,80.5
2018-12-08T09:02:17.094Z,80.0
2018-12-08T09:03:16.360Z,79.3
2018-12-08T09:04:16.624Z,79.3
2018-12-08T09:05:16.892Z,79.5
2018-12-08T09:06:17.163Z,79.4
2018-12-08T09:07:16.424Z,79.1
2018-12-08T09:08:16.687Z,79.0
2018-12-08T09:09:16.949Z,79.3
2018-12-08T09:10:17.229Z,79.3
2018-12-08T09:11:16.281Z,79.8
2018-12-08T09:12:16.541Z,79.2
2018-12-08T09:13:16.810Z,78.8
2018-12-08T09:14:17.091Z,78.9
2018-12-08T09:15:16.362Z,78.6
2018-12-08T09:16:16.630Z,78.3
2018-12-08T09:17:16.887Z,78.5
2018-12-08T09:18:17.483Z,78.7
2018-12-08T09:19:16.745Z,78.0
2018-12-08T09:20:17.020Z,78.4
2018-12-08T09:21:17.074Z,78.1
2018-12-08T09:22:16.352Z,77.8
2018-12-08T09:23:16.614Z,78.2
2018-12-08T09:24:16.888Z,77.3
2018-12-08T09:25:17.154Z,77.2
2018-12-08T09:26:16.495Z,77.2
2018-12-08T09:27:16.764Z,78.0
2018-12-08T09:28:17.028Z,77.7
2018-12-08T09:29:16.289Z,77.8
2018-12-08T09:30:16.567Z,78.0
2018-12-08T09:31:16.609Z,77.7
2018-12-08T09:32:16.868Z,77.7
2018-12-08T09:33:17.128Z,77.3
2018-12-08T09:34:16.396Z,77.4
2018-12-08T09:35:16.693Z,77.1
2018-12-08T09:36:16.951Z,77.4
2018-12-08T09:37:17.223Z,77.2
2018-12-08T09:38:16.484Z,77.5
2018-12-08T09:39:16.748Z,76.9
2018-12-08T09:40:17.015Z,77.4
2018-12-08T09:41:17.069Z,77.2
2018-12-08T09:42:16.339Z,77.0
2018-12-08T09:43:16.608Z,77.8
2018-12-08T09:44:16.886Z,77.3
2018-12-08T09:45:17.162Z,76.4
2018-12-08T09:46:16.422Z,76.5
2018-12-08T09:47:16.687Z,76.4
2018-12-08T09:48:16.947Z,76.6
2018-12-08T09:49:17.214Z,76.9
2018-12-08T09:50:16.494Z,76.6
2018-12-08T09:51:16.541Z,76.5
2018-12-08T09:52:16.815Z,76.6
2018-12-08T09:53:17.083Z,76.7
2018-12-08T09:54:16.341Z,76.2
2018-12-08T09:55:16.611Z,76.2
2018-12-08T09:56:16.866Z,76.6
2018-12-08T09:57:17.128Z,76.9
2018-12-08T09:58:16.435Z,76.8
2018-12-08T09:59:16.702Z,77.3
2018-12-08T10:00:16.982Z,77.2
2018-12-08T10:01:17.027Z,76.9
2018-12-08T10:02:16.293Z,76.6
2018-12-08T10:03:16.548Z,76.8
2018-12-08T10:04:16.823Z,77.0
2018-12-08T10:05:17.088Z,78.0
2018-12-08T10:06:16.369Z,77.5
2018-12-08T10:07:16.639Z,77.3
2018-12-08T10:08:16.901Z,77.5
2018-12-08T10:09:17.175Z,77.5
2018-12-08T10:10:16.456Z,77.2
2018-12-08T10:11:16.496Z,77.2
2018-12-08T10:12:16.760Z,77.2
2018-12-08T10:13:17.024Z,77.7
2018-12-08T10:14:16.378Z,77.6
2018-12-08T10:15:16.651Z,77.7
2018-12-08T10:16:16.906Z,77.9
2018-12-08T10:17:17.171Z,77.7
2018-12-08T10:18:16.438Z,78.0
2018-12-08T10:19:16.709Z,78.0
2018-12-08T10:20:16.989Z,77.3
2018-12-08T10:21:17.037Z,77.3
2018-12-08T10:22:16.301Z,77.4
2018-12-08T10:23:16.559Z,77.2
2018-12-08T10:24:16.822Z,77.3
2018-12-08T10:25:17.086Z,77.4
2018-12-08T10:26:16.350Z,77.5
2018-12-08T10:27:16.617Z,77.2
2018-12-08T10:28:16.892Z,77.7
2018-12-08T10:29:17.147Z,77.2
2018-12-08T10:30:16.413Z,77.5
2018-12-08T10:31:16.462Z,77.6
2018-12-08T10:32:16.740Z,78.2
2018-12-08T10:33:17.005Z,78.1
2018-12-08T10:34:16.279Z,78.5
2018-12-08T10:35:16.556Z,77.9
2018-12-08T10:36:16.813Z,78.1
2018-12-08T10:37:17.176Z,78.8
2018-12-08T10:38:16.436Z,78.4
2018-12-08T10:39:16.703Z,78.7
2018-12-08T10:40:17.003Z,78.5
2018-12-08T10:41:17.029Z,78.6
2018-12-08T10:42:16.294Z,78.2
2018-12-08T10:43:16.549Z,78.2
2018-12-08T10:44:16.815Z,77.8
2018-12-08T10:45:17.071Z,77.9
2018-12-08T10:46:16.329Z,77.9
2018-12-08T10:47:16.703Z,78.6
2018-12-08T10:48:16.963Z,77.8
2018-12-08T10:49:17.222Z,77.7
2018-12-08T10:50:16.497Z,77.8
2018-12-08T10:51:16.533Z,77.5
2018-12-08T10:52:16.791Z,77.7
2018-12-08T10:53:17.073Z,77.9
2018-12-08T10:54:16.334Z,77.7
2018-12-08T10:55:16.604Z,77.5
2018-12-08T10:56:16.872Z,77.8
2018-12-08T10:57:17.135Z,78.2
2018-12-08T10:58:16.404Z,78.6
2018-12-08T10:59:16.678Z,78.4
2018-12-08T11:00:16.954Z,78.8
2018-12-08T11:01:16.983Z,78.9
2018-12-08T11:02:17.251Z,78.9
2018-12-08T11:03:16.520Z,79.2
2018-12-08T11:04:16.783Z,80.0
2018-12-08T11:05:17.043Z,80.5
2018-12-08T11:06:17.227Z,81.0
2018-12-08T11:07:16.502Z,82.0
2018-12-08T11:08:16.764Z,82.2
2018-12-08T11:09:17.035Z,81.8
2018-12-08T11:10:16.305Z,81.8
2018-12-08T11:11:16.341Z,82.2
2018-12-08T11:12:16.613Z,81.8
2018-12-08T11:13:16.875Z,82.2
2018-12-08T11:14:17.134Z,82.3
2018-12-08T11:15:16.396Z,82.6
2018-12-08T11:16:16.654Z,82.4
2018-12-08T11:17:16.919Z,81.9
2018-12-08T11:18:17.209Z,83.2
2018-12-08T11:19:16.471Z,83.3
2018-12-08T11:20:16.737Z,84.8
2018-12-08T11:21:16.798Z,85.0
2018-12-08T11:22:17.070Z,85.2
2018-12-08T11:23:16.327Z,85.5
2018-12-08T11:24:16.605Z,85.6
2018-12-08T11:25:16.873Z,85.4
2018-12-08T11:26:17.138Z,85.2
2018-12-08T11:27:16.413Z,85.1
2018-12-08T11:28:16.672Z,84.8
2018-12-08T11:29:16.935Z,85.5
2018-12-08T11:30:17.217Z,85.3
2018-12-08T11:31:17.243Z,86.2
2018-12-08T11:32:16.505Z,85.8
2018-12-08T11:33:16.774Z,86.1
2018-12-08T11:34:17.049Z,87.1
2018-12-08T11:35:16.305Z,87.8
2018-12-08T11:36:16.570Z,87.3
2018-12-08T11:37:16.834Z,87.2
2018-12-08T11:38:17.109Z,87.5
2018-12-08T11:39:16.390Z,88.5
2018-12-08T11:40:16.662Z,89.2
2018-12-08T11:41:16.725Z,89.0
2018-12-08T11:42:16.987Z,89.2
2018-12-08T11:43:17.245Z,89.0
2018-12-08T11:44:16.521Z,89.3
2018-12-08T11:45:16.800Z,89.5
2018-12-08T11:46:17.069Z,89.6
2018-12-08T11:47:16.336Z,90.0
2018-12-08T11:48:16.596Z,89.6
2018-12-08T11:49:16.867Z,90.2
2018-12-08T11:50:17.144Z,90.5
2018-12-08T11:51:17.181Z,90.9
2018-12-08T11:52:16.437Z,91.3
2018-12-08T11:53:16.708Z,90.3
2018-12-08T11:54:16.970Z,90.3
2018-12-08T11:55:17.225Z,90.4
2018-12-08T11:56:16.502Z,90.2
2018-12-08T11:57:16.761Z,90.2
2018-12-08T11:58:17.025Z,91.2
2018-12-08T11:59:16.287Z,90.8
2018-12-08T12:00:16.667Z,90.9
2018-12-08T12:01:16.660Z,90.7
2018-12-08T12:02:17.012Z,90.6
2018-12-08T12:03:16.276Z,90.0
2018-12-08T12:04:16.541Z,90.1
2018-12-08T12:05:16.811Z,89.9
2018-12-08T12:06:17.094Z,90.4
2018-12-08T12:07:16.365Z,89.5
2018-12-08T12:08:16.639Z,89.5
2018-12-08T12:09:16.900Z,90.0
2018-12-08T12:10:17.167Z,89.8
2018-12-08T12:11:17.211Z,90.0
2018-12-08T12:12:16.478Z,90.0
2018-12-08T12:13:16.746Z,89.9
2018-12-08T12:14:17.011Z,89.7
2018-12-08T12:15:16.271Z,89.4
2018-12-08T12:16:16.540Z,88.9
2018-12-08T12:17:16.819Z,89.2
2018-12-08T12:18:17.081Z,89.1
2018-12-08T12:19:16.345Z,88.8
2018-12-08T12:20:16.614Z,88.5
2018-12-08T12:21:16.665Z,88.7
2018-12-08T12:22:16.937Z,88.3
2018-12-08T12:23:17.193Z,88.3
2018-12-08T12:24:16.485Z,87.8
2018-12-08T12:25:16.757Z,87.6
2018-12-08T12:26:17.020Z,87.7
2018-12-08T12:27:16.285Z,87.8
2018-12-08T12:28:16.565Z,87.5
2018-12-08T12:29:16.832Z,87.7
2018-12-08T12:30:17.119Z,88.0
2018-12-08T12:31:17.177Z,88.0
2018-12-08T12:32:16.440Z,87.3
2018-12-08T12:33:16.714Z,87.0
2018-12-08T12:34:16.974Z,86.9
2018-12-08T12:35:17.239Z,86.9
2018-12-08T12:36:16.500Z,87.0
2018-12-08T12:37:16.761Z,87.5
2018-12-08T12:38:17.023Z,87.0
2018-12-08T12:39:16.280Z,87.0
2018-12-08T12:40:16.546Z,87.0
2018-12-08T12:41:16.598Z,87.3
2018-12-08T12:42:16.864Z,87.2
2018-12-08T12:43:17.120Z,86.5
2018-12-08T12:44:16.374Z,86.5
2018-12-08T12:45:16.659Z,86.1
2018-12-08T12:46:16.915Z,86.2
2018-12-08T12:47:17.192Z,86.0
2018-12-08T12:48:16.458Z,86.0
2018-12-08T12:49:16.719Z,85.8
2018-12-08T12:50:16.997Z,85.7
2018-12-08T12:51:17.150Z,85.8
2018-12-08T12:52:16.416Z,85.8
2018-12-08T12:53:16.673Z,85.5
2018-12-08T12:54:16.935Z,86.0
2018-12-08T12:55:17.211Z,85.8
2018-12-08T12:56:16.480Z,85.9
2018-12-08T12:57:16.744Z,85.5
2018-12-08T12:58:17.013Z,85.5
2018-12-08T12:59:16.294Z,85.7
2018-12-08T13:00:16.566Z,86.0
2018-12-08T13:01:16.613Z,85.8
2018-12-08T13:02:16.871Z,85.8
2018-12-08T13:03:17.132Z,85.6
2018-12-08T13:04:16.397Z,85.8
2018-12-08T13:05:16.669Z,85.9
2018-12-08T13:06:16.939Z,86.5
2018-12-08T13:07:17.474Z,86.6
2018-12-08T13:08:16.736Z,87.1
2018-12-08T13:09:16.996Z,87.0
2018-12-08T13:10:16.266Z,87.3
2018-12-08T13:11:16.326Z,87.8
2018-12-08T13:12:16.585Z,87.9
2018-12-08T13:13:16.845Z,87.9
2018-12-08T13:14:17.107Z,88.0
2018-12-08T13:15:16.397Z,87.7
2018-12-08T13:16:16.665Z,87.8
2018-12-08T13:17:16.922Z,88.1
2018-12-08T13:18:17.185Z,87.9